sensor_id;sensor_type;location;lat;lon;timestamp;temperature;humidity
72114;SHT31;59989;46.220;19.888;2023-10-13T00:01:35;12.81;92.66
72114;SHT31;59989;46.220;19.888;2023-10-13T00:04:38;12.89;93.45
72114;SHT31;59989;46.220;19.888;2023-10-13T00:07:42;12.86;93.45
72114;SHT31;59989;46.220;19.888;2023-10-13T00:10:44;12.79;93.68
72114;SHT31;59989;46.220;19.888;2023-10-13T00:13:47;12.81;94.29
72114;SHT31;59989;46.220;19.888;2023-10-13T00:16:53;12.89;94.69
72114;SHT31;59989;46.220;19.888;2023-10-13T00:20:08;12.95;94.13
72114;SHT31;59989;46.220;19.888;2023-10-13T00:23:30;12.88;93.58
72114;SHT31;59989;46.220;19.888;2023-10-13T00:26:35;12.78;93.47
72114;SHT31;59989;46.220;19.888;2023-10-13T00:29:40;12.68;93.54
72114;SHT31;59989;46.220;19.888;2023-10-13T00:32:44;12.59;93.59
72114;SHT31;59989;46.220;19.888;2023-10-13T00:35:49;12.59;93.88
72114;SHT31;59989;46.220;19.888;2023-10-13T00:38:54;12.54;94.00
72114;SHT31;59989;46.220;19.888;2023-10-13T00:41:59;12.54;93.92
72114;SHT31;59989;46.220;19.888;2023-10-13T00:45:08;12.48;93.99
72114;SHT31;59989;46.220;19.888;2023-10-13T00:48:19;12.44;94.20
72114;SHT31;59989;46.220;19.888;2023-10-13T00:51:21;12.45;94.24
72114;SHT31;59989;46.220;19.888;2023-10-13T00:54:36;12.42;94.31
72114;SHT31;59989;46.220;19.888;2023-10-13T00:57:40;12.41;94.27
72114;SHT31;59989;46.220;19.888;2023-10-13T01:00:43;12.37;94.23
72114;SHT31;59989;46.220;19.888;2023-10-13T01:03:58;12.31;94.37
72114;SHT31;59989;46.220;19.888;2023-10-13T01:07:05;12.31;94.73
72114;SHT31;59989;46.220;19.888;2023-10-13T01:10:10;12.28;95.11
72114;SHT31;59989;46.220;19.888;2023-10-13T01:13:16;12.27;95.26
72114;SHT31;59989;46.220;19.888;2023-10-13T01:16:20;12.33;95.57
72114;SHT31;59989;46.220;19.888;2023-10-13T01:19:29;12.31;95.67
72114;SHT31;59989;46.220;19.888;2023-10-13T01:22:32;12.59;96.13
72114;SHT31;59989;46.220;19.888;2023-10-13T01:25:37;12.59;95.91
72114;SHT31;59989;46.220;19.888;2023-10-13T01:28:40;12.73;95.84
72114;SHT31;59989;46.220;19.888;2023-10-13T01:31:50;12.82;95.16
72114;SHT31;59989;46.220;19.888;2023-10-13T01:34:52;12.86;94.73
72114;SHT31;59989;46.220;19.888;2023-10-13T01:37:58;12.81;94.36
72114;SHT31;59989;46.220;19.888;2023-10-13T01:41:00;12.68;94.12
72114;SHT31;59989;46.220;19.888;2023-10-13T01:44:07;12.55;94.13
72114;SHT31;59989;46.220;19.888;2023-10-13T01:47:11;12.45;94.15
72114;SHT31;59989;46.220;19.888;2023-10-13T01:50:14;12.42;94.55
72114;SHT31;59989;46.220;19.888;2023-10-13T01:53:23;12.37;94.80
72114;SHT31;59989;46.220;19.888;2023-10-13T01:56:26;12.35;94.97
72114;SHT31;59989;46.220;19.888;2023-10-13T01:59:32;12.38;95.25
72114;SHT31;59989;46.220;19.888;2023-10-13T02:02:35;12.49;95.52
72114;SHT31;59989;46.220;19.888;2023-10-13T02:05:48;12.69;95.46
72114;SHT31;59989;46.220;19.888;2023-10-13T02:08:51;12.81;94.56
72114;SHT31;59989;46.220;19.888;2023-10-13T02:11:59;12.78;94.67
72114;SHT31;59989;46.220;19.888;2023-10-13T02:15:02;12.73;94.55
72114;SHT31;59989;46.220;19.888;2023-10-13T02:18:07;12.68;94.46
72114;SHT31;59989;46.220;19.888;2023-10-13T02:21:11;12.62;94.42
72114;SHT31;59989;46.220;19.888;2023-10-13T02:24:16;12.64;94.43
72114;SHT31;59989;46.220;19.888;2023-10-13T02:27:22;12.73;94.75
72114;SHT31;59989;46.220;19.888;2023-10-13T02:30:26;12.68;94.43
72114;SHT31;59989;46.220;19.888;2023-10-13T02:33:31;12.61;94.22
72114;SHT31;59989;46.220;19.888;2023-10-13T02:36:38;12.54;94.02
72114;SHT31;59989;46.220;19.888;2023-10-13T02:39:49;12.42;94.17
72114;SHT31;59989;46.220;19.888;2023-10-13T02:42:52;12.41;94.30
72114;SHT31;59989;46.220;19.888;2023-10-13T02:45:55;12.37;94.34
72114;SHT31;59989;46.220;19.888;2023-10-13T02:49:02;12.30;94.49
72114;SHT31;59989;46.220;19.888;2023-10-13T02:52:13;12.28;94.52
72114;SHT31;59989;46.220;19.888;2023-10-13T02:55:16;12.23;94.63
72114;SHT31;59989;46.220;19.888;2023-10-13T02:58:27;12.18;94.70
72114;SHT31;59989;46.220;19.888;2023-10-13T03:01:40;12.12;94.65
72114;SHT31;59989;46.220;19.888;2023-10-13T03:04:47;12.06;94.71
72114;SHT31;59989;46.220;19.888;2023-10-13T03:07:50;12.06;94.66
72114;SHT31;59989;46.220;19.888;2023-10-13T03:10:53;12.00;94.81
72114;SHT31;59989;46.220;19.888;2023-10-13T03:13:57;12.00;95.13
72114;SHT31;59989;46.220;19.888;2023-10-13T03:17:02;11.96;95.21
72114;SHT31;59989;46.220;19.888;2023-10-13T03:20:06;11.93;95.22
72114;SHT31;59989;46.220;19.888;2023-10-13T03:23:13;11.91;95.17
72114;SHT31;59989;46.220;19.888;2023-10-13T03:26:16;11.90;95.00
72114;SHT31;59989;46.220;19.888;2023-10-13T03:29:23;11.85;95.09
72114;SHT31;59989;46.220;19.888;2023-10-13T03:32:26;11.83;95.36
72114;SHT31;59989;46.220;19.888;2023-10-13T03:35:29;11.79;95.41
72114;SHT31;59989;46.220;19.888;2023-10-13T03:38:39;11.76;95.48
72114;SHT31;59989;46.220;19.888;2023-10-13T03:41:42;11.75;95.53
72114;SHT31;59989;46.220;19.888;2023-10-13T03:44:47;11.70;95.52
72114;SHT31;59989;46.220;19.888;2023-10-13T03:47:50;11.82;95.84
72114;SHT31;59989;46.220;19.888;2023-10-13T03:50:58;11.80;95.92
72114;SHT31;59989;46.220;19.888;2023-10-13T03:54:13;11.87;96.42
72114;SHT31;59989;46.220;19.888;2023-10-13T03:57:17;11.96;96.41
72114;SHT31;59989;46.220;19.888;2023-10-13T04:00:22;11.97;96.22
72114;SHT31;59989;46.220;19.888;2023-10-13T04:03:29;11.91;95.85
72114;SHT31;59989;46.220;19.888;2023-10-13T04:06:41;11.89;95.74
72114;SHT31;59989;46.220;19.888;2023-10-13T04:09:50;11.79;95.31
72114;SHT31;59989;46.220;19.888;2023-10-13T04:12:52;11.72;95.30
72114;SHT31;59989;46.220;19.888;2023-10-13T04:15:55;11.66;95.30
72114;SHT31;59989;46.220;19.888;2023-10-13T04:19:16;11.67;95.31
72114;SHT31;59989;46.220;19.888;2023-10-13T04:22:26;11.65;95.36
72114;SHT31;59989;46.220;19.888;2023-10-13T04:25:49;11.65;95.34
72114;SHT31;59989;46.220;19.888;2023-10-13T04:28:52;11.63;95.62
72114;SHT31;59989;46.220;19.888;2023-10-13T04:31:57;11.62;95.69
72114;SHT31;59989;46.220;19.888;2023-10-13T04:35:03;11.62;95.76
72114;SHT31;59989;46.220;19.888;2023-10-13T04:38:32;11.63;95.86
72114;SHT31;59989;46.220;19.888;2023-10-13T04:41:57;11.61;95.69
72114;SHT31;59989;46.220;19.888;2023-10-13T04:45:00;11.67;96.07
72114;SHT31;59989;46.220;19.888;2023-10-13T04:48:18;11.69;96.17
72114;SHT31;59989;46.220;19.888;2023-10-13T04:51:23;11.72;96.13
72114;SHT31;59989;46.220;19.888;2023-10-13T04:54:46;11.82;96.66
72114;SHT31;59989;46.220;19.888;2023-10-13T04:57:51;11.89;96.56
72114;SHT31;59989;46.220;19.888;2023-10-13T05:01:02;11.91;96.16
72114;SHT31;59989;46.220;19.888;2023-10-13T05:04:24;12.00;95.81
72114;SHT31;59989;46.220;19.888;2023-10-13T05:08:01;12.00;95.35
72114;SHT31;59989;46.220;19.888;2023-10-13T05:11:22;12.04;95.32
72114;SHT31;59989;46.220;19.888;2023-10-13T05:14:43;12.13;95.14
72114;SHT31;59989;46.220;19.888;2023-10-13T05:18:05;12.23;95.04
72114;SHT31;59989;46.220;19.888;2023-10-13T05:21:26;12.21;94.70
72114;SHT31;59989;46.220;19.888;2023-10-13T05:24:47;12.33;94.41
72114;SHT31;59989;46.220;19.888;2023-10-13T05:28:08;12.37;94.20
72114;SHT31;59989;46.220;19.888;2023-10-13T05:31:37;12.42;93.75
72114;SHT31;59989;46.220;19.888;2023-10-13T05:34:58;12.55;94.10
72114;SHT31;59989;46.220;19.888;2023-10-13T05:38:22;12.66;93.96
72114;SHT31;59989;46.220;19.888;2023-10-13T05:41:44;12.76;94.00
72114;SHT31;59989;46.220;19.888;2023-10-13T05:45:05;12.83;93.74
72114;SHT31;59989;46.220;19.888;2023-10-13T05:48:19;12.95;93.35
72114;SHT31;59989;46.220;19.888;2023-10-13T05:51:37;13.03;92.98
72114;SHT31;59989;46.220;19.888;2023-10-13T05:54:48;13.17;92.48
72114;SHT31;59989;46.220;19.888;2023-10-13T05:58:10;13.30;92.30
72114;SHT31;59989;46.220;19.888;2023-10-13T06:01:31;13.41;92.23
72114;SHT31;59989;46.220;19.888;2023-10-13T06:04:53;13.51;91.55
72114;SHT31;59989;46.220;19.888;2023-10-13T06:08:14;13.60;91.55
72114;SHT31;59989;46.220;19.888;2023-10-13T06:11:36;13.70;91.71
72114;SHT31;59989;46.220;19.888;2023-10-13T06:14:57;13.81;91.08
72114;SHT31;59989;46.220;19.888;2023-10-13T06:18:18;13.89;91.02
72114;SHT31;59989;46.220;19.888;2023-10-13T06:21:39;13.99;91.57
72114;SHT31;59989;46.220;19.888;2023-10-13T06:25:01;14.04;91.56
72114;SHT31;59989;46.220;19.888;2023-10-13T06:28:23;14.09;91.17
72114;SHT31;59989;46.220;19.888;2023-10-13T06:31:43;14.18;90.68
72114;SHT31;59989;46.220;19.888;2023-10-13T06:34:48;14.29;90.60
72114;SHT31;59989;46.220;19.888;2023-10-13T06:37:53;14.36;90.36
72114;SHT31;59989;46.220;19.888;2023-10-13T06:40:57;14.49;89.94
72114;SHT31;59989;46.220;19.888;2023-10-13T06:44:00;14.59;89.70
72114;SHT31;59989;46.220;19.888;2023-10-13T06:47:02;14.76;89.47
72114;SHT31;59989;46.220;19.888;2023-10-13T06:50:06;14.95;89.18
72114;SHT31;59989;46.220;19.888;2023-10-13T06:53:21;15.04;89.22
72114;SHT31;59989;46.220;19.888;2023-10-13T06:56:23;15.21;89.23
72114;SHT31;59989;46.220;19.888;2023-10-13T06:59:30;15.35;89.51
72114;SHT31;59989;46.220;19.888;2023-10-13T07:02:35;15.53;88.95
72114;SHT31;59989;46.220;19.888;2023-10-13T07:05:39;15.77;88.34
72114;SHT31;59989;46.220;19.888;2023-10-13T07:08:43;16.04;87.54
72114;SHT31;59989;46.220;19.888;2023-10-13T07:11:54;16.32;86.47
72114;SHT31;59989;46.220;19.888;2023-10-13T07:14:56;16.45;86.13
72114;SHT31;59989;46.220;19.888;2023-10-13T07:18:16;16.63;85.86
72114;SHT31;59989;46.220;19.888;2023-10-13T07:21:25;16.59;85.72
72114;SHT31;59989;46.220;19.888;2023-10-13T07:24:34;16.56;86.05
72114;SHT31;59989;46.220;19.888;2023-10-13T07:27:42;16.55;86.21
72114;SHT31;59989;46.220;19.888;2023-10-13T07:30:44;16.66;85.59
72114;SHT31;59989;46.220;19.888;2023-10-13T07:33:53;16.76;84.07
72114;SHT31;59989;46.220;19.888;2023-10-13T07:37:05;16.91;84.37
72114;SHT31;59989;46.220;19.888;2023-10-13T07:40:15;17.24;83.86
72114;SHT31;59989;46.220;19.888;2023-10-13T07:43:38;17.31;84.07
72114;SHT31;59989;46.220;19.888;2023-10-13T07:46:42;17.41;84.36
72114;SHT31;59989;46.220;19.888;2023-10-13T07:49:49;17.52;84.58
72114;SHT31;59989;46.220;19.888;2023-10-13T07:52:53;17.75;83.92
72114;SHT31;59989;46.220;19.888;2023-10-13T07:56:07;18.12;82.83
72114;SHT31;59989;46.220;19.888;2023-10-13T07:59:16;18.16;82.70
72114;SHT31;59989;46.220;19.888;2023-10-13T08:02:19;18.47;82.24
72114;SHT31;59989;46.220;19.888;2023-10-13T08:05:51;18.64;82.20
72114;SHT31;59989;46.220;19.888;2023-10-13T08:09:09;18.79;81.25
72114;SHT31;59989;46.220;19.888;2023-10-13T08:12:31;19.24;80.33
72114;SHT31;59989;46.220;19.888;2023-10-13T08:15:33;19.30;79.32
72114;SHT31;59989;46.220;19.888;2023-10-13T08:18:36;19.54;79.22
72114;SHT31;59989;46.220;19.888;2023-10-13T08:21:38;19.88;78.59
72114;SHT31;59989;46.220;19.888;2023-10-13T08:24:41;20.02;77.52
72114;SHT31;59989;46.220;19.888;2023-10-13T08:27:43;20.53;77.13
72114;SHT31;59989;46.220;19.888;2023-10-13T08:30:51;21.11;74.71
72114;SHT31;59989;46.220;19.888;2023-10-13T08:33:55;21.12;75.27
72114;SHT31;59989;46.220;19.888;2023-10-13T08:37:11;21.51;73.95
72114;SHT31;59989;46.220;19.888;2023-10-13T08:40:34;21.38;74.93
72114;SHT31;59989;46.220;19.888;2023-10-13T08:44:08;21.38;74.04
72114;SHT31;59989;46.220;19.888;2023-10-13T08:47:16;21.67;73.71
72114;SHT31;59989;46.220;19.888;2023-10-13T08:50:22;21.71;73.07
72114;SHT31;59989;46.220;19.888;2023-10-13T08:53:51;22.03;72.52
72114;SHT31;59989;46.220;19.888;2023-10-13T08:56:56;22.39;71.19
72114;SHT31;59989;46.220;19.888;2023-10-13T08:59:59;22.69;70.66
72114;SHT31;59989;46.220;19.888;2023-10-13T09:03:22;22.94;69.82
72114;SHT31;59989;46.220;19.888;2023-10-13T09:06:31;23.16;68.67
72114;SHT31;59989;46.220;19.888;2023-10-13T09:12:55;23.66;67.88
72114;SHT31;59989;46.220;19.888;2023-10-13T09:16:12;23.47;68.09
72114;SHT31;59989;46.220;19.888;2023-10-13T09:22:53;24.24;64.88
72114;SHT31;59989;46.220;19.888;2023-10-13T09:26:10;24.40;64.72
72114;SHT31;59989;46.220;19.888;2023-10-13T09:29:18;24.91;64.03
72114;SHT31;59989;46.220;19.888;2023-10-13T09:32:21;25.15;63.10
72114;SHT31;59989;46.220;19.888;2023-10-13T09:35:26;24.49;63.81
72114;SHT31;59989;46.220;19.888;2023-10-13T09:38:32;24.67;63.68
72114;SHT31;59989;46.220;19.888;2023-10-13T09:41:37;24.73;63.50
72114;SHT31;59989;46.220;19.888;2023-10-13T09:44:41;24.87;63.21
72114;SHT31;59989;46.220;19.888;2023-10-13T09:47:52;25.15;62.33
72114;SHT31;59989;46.220;19.888;2023-10-13T09:51:04;25.39;61.30
72114;SHT31;59989;46.220;19.888;2023-10-13T09:57:37;25.30;60.58
72114;SHT31;59989;46.220;19.888;2023-10-13T10:00:50;25.43;60.35
72114;SHT31;59989;46.220;19.888;2023-10-13T10:04:08;25.62;60.27
72114;SHT31;59989;46.220;19.888;2023-10-13T10:07:11;25.66;59.69
72114;SHT31;59989;46.220;19.888;2023-10-13T10:10:21;25.83;59.47
72114;SHT31;59989;46.220;19.888;2023-10-13T10:13:52;25.97;58.65
72114;SHT31;59989;46.220;19.888;2023-10-13T10:17:06;26.10;58.56
72114;SHT31;59989;46.220;19.888;2023-10-13T10:20:12;25.96;58.51
72114;SHT31;59989;46.220;19.888;2023-10-13T10:23:26;26.17;58.07
72114;SHT31;59989;46.220;19.888;2023-10-13T10:26:31;26.07;58.72
72114;SHT31;59989;46.220;19.888;2023-10-13T10:29:33;26.58;57.18
72114;SHT31;59989;46.220;19.888;2023-10-13T10:32:37;27.00;56.39
72114;SHT31;59989;46.220;19.888;2023-10-13T10:35:46;27.29;55.50
72114;SHT31;59989;46.220;19.888;2023-10-13T10:38:55;27.14;55.85
72114;SHT31;59989;46.220;19.888;2023-10-13T10:42:10;26.89;55.62
72114;SHT31;59989;46.220;19.888;2023-10-13T10:45:19;26.98;55.52
72114;SHT31;59989;46.220;19.888;2023-10-13T10:48:26;26.96;55.35
72114;SHT31;59989;46.220;19.888;2023-10-13T10:51:39;27.27;53.85
72114;SHT31;59989;46.220;19.888;2023-10-13T10:54:46;27.43;54.33
72114;SHT31;59989;46.220;19.888;2023-10-13T10:58:00;27.53;53.22
72114;SHT31;59989;46.220;19.888;2023-10-13T11:01:11;27.64;53.52
72114;SHT31;59989;46.220;19.888;2023-10-13T11:04:15;27.55;52.96
72114;SHT31;59989;46.220;19.888;2023-10-13T11:07:25;27.50;53.46
72114;SHT31;59989;46.220;19.888;2023-10-13T11:10:30;27.61;52.85
72114;SHT31;59989;46.220;19.888;2023-10-13T11:13:44;27.77;52.33
72114;SHT31;59989;46.220;19.888;2023-10-13T11:17:20;28.22;50.63
72114;SHT31;59989;46.220;19.888;2023-10-13T11:20:28;27.53;51.46
72114;SHT31;59989;46.220;19.888;2023-10-13T11:23:36;27.98;50.74
72114;SHT31;59989;46.220;19.888;2023-10-13T11:26:39;28.05;50.76
72114;SHT31;59989;46.220;19.888;2023-10-13T11:29:57;28.06;50.44
72114;SHT31;59989;46.220;19.888;2023-10-13T11:33:08;28.12;51.08
72114;SHT31;59989;46.220;19.888;2023-10-13T11:36:11;28.23;50.33
72114;SHT31;59989;46.220;19.888;2023-10-13T11:39:23;28.29;50.72
72114;SHT31;59989;46.220;19.888;2023-10-13T11:42:32;28.26;49.61
72114;SHT31;59989;46.220;19.888;2023-10-13T11:45:38;28.36;50.73
72114;SHT31;59989;46.220;19.888;2023-10-13T11:48:42;27.97;50.59
72114;SHT31;59989;46.220;19.888;2023-10-13T11:51:47;27.84;50.06
72114;SHT31;59989;46.220;19.888;2023-10-13T11:54:50;28.12;50.20
72114;SHT31;59989;46.220;19.888;2023-10-13T11:57:52;28.16;49.10
72114;SHT31;59989;46.220;19.888;2023-10-13T12:00:55;27.55;50.73
72114;SHT31;59989;46.220;19.888;2023-10-13T12:04:17;28.19;49.89
72114;SHT31;59989;46.220;19.888;2023-10-13T12:07:39;27.77;49.58
72114;SHT31;59989;46.220;19.888;2023-10-13T12:10:48;27.72;49.34
72114;SHT31;59989;46.220;19.888;2023-10-13T12:14:02;27.94;49.47
72114;SHT31;59989;46.220;19.888;2023-10-13T12:17:19;28.06;49.11
72114;SHT31;59989;46.220;19.888;2023-10-13T12:20:27;28.43;48.47
72114;SHT31;59989;46.220;19.888;2023-10-13T12:23:37;28.38;48.91
72114;SHT31;59989;46.220;19.888;2023-10-13T12:26:40;29.06;47.80
72114;SHT31;59989;46.220;19.888;2023-10-13T12:29:49;29.01;46.84
72114;SHT31;59989;46.220;19.888;2023-10-13T12:32:51;29.46;46.14
72114;SHT31;59989;46.220;19.888;2023-10-13T12:36:01;29.93;45.73
72114;SHT31;59989;46.220;19.888;2023-10-13T12:39:16;30.42;44.70
72114;SHT31;59989;46.220;19.888;2023-10-13T12:42:37;30.75;43.64
72114;SHT31;59989;46.220;19.888;2023-10-13T12:45:58;30.69;42.81
72114;SHT31;59989;46.220;19.888;2023-10-13T12:49:19;30.48;43.44
72114;SHT31;59989;46.220;19.888;2023-10-13T12:52:40;31.82;41.84
72114;SHT31;59989;46.220;19.888;2023-10-13T12:55:48;31.26;41.61
72114;SHT31;59989;46.220;19.888;2023-10-13T12:58:54;30.69;41.48
72114;SHT31;59989;46.220;19.888;2023-10-13T13:01:57;31.58;40.49
72114;SHT31;59989;46.220;19.888;2023-10-13T13:05:00;30.99;40.75
72114;SHT31;59989;46.220;19.888;2023-10-13T13:08:14;31.54;40.66
72114;SHT31;59989;46.220;19.888;2023-10-13T13:11:25;30.81;42.00
72114;SHT31;59989;46.220;19.888;2023-10-13T13:14:28;31.27;40.74
72114;SHT31;59989;46.220;19.888;2023-10-13T13:17:32;31.17;40.83
72114;SHT31;59989;46.220;19.888;2023-10-13T13:20:34;30.88;40.64
72114;SHT31;59989;46.220;19.888;2023-10-13T13:23:41;31.50;40.24
72114;SHT31;59989;46.220;19.888;2023-10-13T13:26:43;31.08;40.90
72114;SHT31;59989;46.220;19.888;2023-10-13T13:29:46;31.95;40.13
72114;SHT31;59989;46.220;19.888;2023-10-13T13:32:49;31.66;40.87
72114;SHT31;59989;46.220;19.888;2023-10-13T13:35:55;30.72;41.94
72114;SHT31;59989;46.220;19.888;2023-10-13T13:39:02;30.24;42.36
72114;SHT31;59989;46.220;19.888;2023-10-13T13:42:05;30.07;43.12
72114;SHT31;59989;46.220;19.888;2023-10-13T13:45:17;29.06;44.48
72114;SHT31;59989;46.220;19.888;2023-10-13T13:48:39;28.67;45.73
72114;SHT31;59989;46.220;19.888;2023-10-13T13:51:41;28.35;45.75
72114;SHT31;59989;46.220;19.888;2023-10-13T13:54:44;28.31;46.79
72114;SHT31;59989;46.220;19.888;2023-10-13T13:57:46;28.39;46.64
72114;SHT31;59989;46.220;19.888;2023-10-13T14:00:49;28.08;46.33
72114;SHT31;59989;46.220;19.888;2023-10-13T14:03:53;28.09;45.50
72114;SHT31;59989;46.220;19.888;2023-10-13T14:06:59;27.77;46.85
72114;SHT31;59989;46.220;19.888;2023-10-13T14:10:01;27.60;46.92
72114;SHT31;59989;46.220;19.888;2023-10-13T14:13:08;27.50;47.33
72114;SHT31;59989;46.220;19.888;2023-10-13T14:16:18;27.51;46.28
72114;SHT31;59989;46.220;19.888;2023-10-13T14:19:20;27.42;46.61
72114;SHT31;59989;46.220;19.888;2023-10-13T14:22:29;27.26;47.52
72114;SHT31;59989;46.220;19.888;2023-10-13T14:25:39;27.07;47.96
72114;SHT31;59989;46.220;19.888;2023-10-13T14:28:47;26.99;48.01
72114;SHT31;59989;46.220;19.888;2023-10-13T14:32:03;26.96;49.19
72114;SHT31;59989;46.220;19.888;2023-10-13T14:35:06;26.74;48.71
72114;SHT31;59989;46.220;19.888;2023-10-13T14:38:18;26.55;49.35
72114;SHT31;59989;46.220;19.888;2023-10-13T14:41:20;26.61;49.22
72114;SHT31;59989;46.220;19.888;2023-10-13T14:44:23;26.49;50.81
72114;SHT31;59989;46.220;19.888;2023-10-13T14:47:29;26.36;50.02
72114;SHT31;59989;46.220;19.888;2023-10-13T14:50:31;26.31;50.37
72114;SHT31;59989;46.220;19.888;2023-10-13T14:53:35;26.18;50.39
72114;SHT31;59989;46.220;19.888;2023-10-13T14:56:38;26.10;50.91
72114;SHT31;59989;46.220;19.888;2023-10-13T14:59:44;26.03;50.75
72114;SHT31;59989;46.220;19.888;2023-10-13T15:02:46;25.85;51.32
72114;SHT31;59989;46.220;19.888;2023-10-13T15:05:49;25.76;51.58
72114;SHT31;59989;46.220;19.888;2023-10-13T15:08:52;25.65;52.19
72114;SHT31;59989;46.220;19.888;2023-10-13T15:11:58;25.39;52.94
72114;SHT31;59989;46.220;19.888;2023-10-13T15:15:01;25.17;53.01
72114;SHT31;59989;46.220;19.888;2023-10-13T15:18:04;24.98;53.82
72114;SHT31;59989;46.220;19.888;2023-10-13T15:21:07;24.88;54.08
72114;SHT31;59989;46.220;19.888;2023-10-13T15:24:11;24.70;54.71
72114;SHT31;59989;46.220;19.888;2023-10-13T15:27:18;24.52;55.30
72114;SHT31;59989;46.220;19.888;2023-10-13T15:30:23;24.32;56.12
72114;SHT31;59989;46.220;19.888;2023-10-13T15:33:27;24.14;56.72
72114;SHT31;59989;46.220;19.888;2023-10-13T15:36:34;23.97;57.55
72114;SHT31;59989;46.220;19.888;2023-10-13T15:39:36;23.82;58.19
72114;SHT31;59989;46.220;19.888;2023-10-13T15:42:39;23.66;58.78
72114;SHT31;59989;46.220;19.888;2023-10-13T15:45:43;23.45;59.25
72114;SHT31;59989;46.220;19.888;2023-10-13T15:48:49;23.22;60.04
72114;SHT31;59989;46.220;19.888;2023-10-13T15:52:11;22.96;62.26
72114;SHT31;59989;46.220;19.888;2023-10-13T15:55:15;22.69;63.30
72114;SHT31;59989;46.220;19.888;2023-10-13T15:58:19;22.40;64.32
72114;SHT31;59989;46.220;19.888;2023-10-13T16:01:21;22.23;64.49
72114;SHT31;59989;46.220;19.888;2023-10-13T16:04:26;22.03;64.65
72114;SHT31;59989;46.220;19.888;2023-10-13T16:07:28;21.85;65.55
72114;SHT31;59989;46.220;19.888;2023-10-13T16:10:31;21.56;67.04
72114;SHT31;59989;46.220;19.888;2023-10-13T16:13:36;21.44;67.59
72114;SHT31;59989;46.220;19.888;2023-10-13T16:16:39;21.23;68.40
72114;SHT31;59989;46.220;19.888;2023-10-13T16:19:41;21.04;69.99
72114;SHT31;59989;46.220;19.888;2023-10-13T16:22:45;20.81;69.43
72114;SHT31;59989;46.220;19.888;2023-10-13T16:25:48;20.80;69.07
72114;SHT31;59989;46.220;19.888;2023-10-13T16:28:52;20.77;68.89
72114;SHT31;59989;46.220;19.888;2023-10-13T16:31:59;20.70;68.44
72114;SHT31;59989;46.220;19.888;2023-10-13T16:35:05;20.63;68.82
72114;SHT31;59989;46.220;19.888;2023-10-13T16:38:08;20.52;69.14
72114;SHT31;59989;46.220;19.888;2023-10-13T16:41:11;20.42;69.44
72114;SHT31;59989;46.220;19.888;2023-10-13T16:44:14;20.30;69.92
72114;SHT31;59989;46.220;19.888;2023-10-13T16:47:18;20.12;70.37
72114;SHT31;59989;46.220;19.888;2023-10-13T16:50:20;20.00;70.67
72114;SHT31;59989;46.220;19.888;2023-10-13T16:53:24;19.85;70.91
72114;SHT31;59989;46.220;19.888;2023-10-13T16:56:26;19.81;70.56
72114;SHT31;59989;46.220;19.888;2023-10-13T16:59:29;19.74;70.78
72114;SHT31;59989;46.220;19.888;2023-10-13T17:02:34;19.64;71.43
72114;SHT31;59989;46.220;19.888;2023-10-13T17:05:45;19.46;72.79
72114;SHT31;59989;46.220;19.888;2023-10-13T17:08:48;19.32;73.33
72114;SHT31;59989;46.220;19.888;2023-10-13T17:11:50;19.18;74.22
72114;SHT31;59989;46.220;19.888;2023-10-13T17:14:53;19.05;74.29
72114;SHT31;59989;46.220;19.888;2023-10-13T17:17:58;18.98;73.75
72114;SHT31;59989;46.220;19.888;2023-10-13T17:21:00;18.88;74.12
72114;SHT31;59989;46.220;19.888;2023-10-13T17:24:03;18.81;74.54
72114;SHT31;59989;46.220;19.888;2023-10-13T17:27:06;18.72;75.21
72114;SHT31;59989;46.220;19.888;2023-10-13T17:30:09;18.69;75.51
72114;SHT31;59989;46.220;19.888;2023-10-13T17:33:12;18.53;75.74
72114;SHT31;59989;46.220;19.888;2023-10-13T17:36:18;18.38;76.50
72114;SHT31;59989;46.220;19.888;2023-10-13T17:39:20;18.23;77.09
72114;SHT31;59989;46.220;19.888;2023-10-13T17:42:23;18.14;77.68
72114;SHT31;59989;46.220;19.888;2023-10-13T17:45:25;18.00;78.47
72114;SHT31;59989;46.220;19.888;2023-10-13T17:48:28;17.88;78.84
72114;SHT31;59989;46.220;19.888;2023-10-13T17:51:31;17.78;79.17
72114;SHT31;59989;46.220;19.888;2023-10-13T17:54:34;17.68;79.29
72114;SHT31;59989;46.220;19.888;2023-10-13T17:57:37;17.61;79.49
72114;SHT31;59989;46.220;19.888;2023-10-13T18:00:39;17.54;79.36
72114;SHT31;59989;46.220;19.888;2023-10-13T18:03:43;17.48;79.54
72114;SHT31;59989;46.220;19.888;2023-10-13T18:06:46;17.41;79.83
72114;SHT31;59989;46.220;19.888;2023-10-13T18:09:49;17.39;80.23
72114;SHT31;59989;46.220;19.888;2023-10-13T18:12:51;17.31;80.40
72114;SHT31;59989;46.220;19.888;2023-10-13T18:15:54;17.20;81.26
72114;SHT31;59989;46.220;19.888;2023-10-13T18:18:57;17.04;81.63
72114;SHT31;59989;46.220;19.888;2023-10-13T18:22:01;16.96;81.96
72114;SHT31;59989;46.220;19.888;2023-10-13T18:25:06;16.84;81.99
72114;SHT31;59989;46.220;19.888;2023-10-13T18:28:14;16.80;82.09
72114;SHT31;59989;46.220;19.888;2023-10-13T18:31:16;16.75;82.19
72114;SHT31;59989;46.220;19.888;2023-10-13T18:34:20;16.70;82.66
72114;SHT31;59989;46.220;19.888;2023-10-13T18:37:23;16.68;82.90
72114;SHT31;59989;46.220;19.888;2023-10-13T18:40:25;16.65;83.39
72114;SHT31;59989;46.220;19.888;2023-10-13T18:43:31;16.58;83.72
72114;SHT31;59989;46.220;19.888;2023-10-13T18:46:36;16.52;83.99
72114;SHT31;59989;46.220;19.888;2023-10-13T18:49:38;16.44;84.29
72114;SHT31;59989;46.220;19.888;2023-10-13T18:52:41;16.41;84.40
72114;SHT31;59989;46.220;19.888;2023-10-13T18:55:44;16.38;84.40
72114;SHT31;59989;46.220;19.888;2023-10-13T18:58:51;16.32;84.50
72114;SHT31;59989;46.220;19.888;2023-10-13T19:01:57;16.28;84.66
72114;SHT31;59989;46.220;19.888;2023-10-13T19:04:59;16.22;84.71
72114;SHT31;59989;46.220;19.888;2023-10-13T19:08:02;16.18;84.93
72114;SHT31;59989;46.220;19.888;2023-10-13T19:11:11;16.15;84.93
72114;SHT31;59989;46.220;19.888;2023-10-13T19:14:14;16.11;85.11
72114;SHT31;59989;46.220;19.888;2023-10-13T19:17:16;16.04;85.26
72114;SHT31;59989;46.220;19.888;2023-10-13T19:20:21;15.98;85.60
72114;SHT31;59989;46.220;19.888;2023-10-13T19:23:23;15.91;85.71
72114;SHT31;59989;46.220;19.888;2023-10-13T19:26:29;15.83;85.76
72114;SHT31;59989;46.220;19.888;2023-10-13T19:29:32;15.80;86.17
72114;SHT31;59989;46.220;19.888;2023-10-13T19:32:35;15.90;85.63
72114;SHT31;59989;46.220;19.888;2023-10-13T19:35:41;15.82;85.66
72114;SHT31;59989;46.220;19.888;2023-10-13T19:38:44;15.80;85.33